createdAt,value
2023-01-13T00:01:44.239Z,9.90
2023-01-13T00:04:11.483Z,9.90
2023-01-13T00:06:38.447Z,9.90
2023-01-13T00:09:05.414Z,9.90
2023-01-13T00:11:32.371Z,9.90
2023-01-13T00:13:59.360Z,9.90
2023-01-13T00:16:26.421Z,9.90
2023-01-13T00:18:53.397Z,9.90
2023-01-13T00:21:21.067Z,9.90
2023-01-13T00:23:48.127Z,9.90
2023-01-13T00:26:15.894Z,9.90
2023-01-13T00:28:42.915Z,9.90
2023-01-13T00:31:10.764Z,9.90
2023-01-13T00:33:37.827Z,9.90
2023-01-13T00:36:05.568Z,9.90
2023-01-13T00:38:33.174Z,9.90
2023-01-13T00:41:04.260Z,9.90
2023-01-13T00:43:32.575Z,9.90
2023-01-13T00:45:59.742Z,9.90
2023-01-13T00:48:26.896Z,9.90
2023-01-13T00:50:56.762Z,9.90
2023-01-13T00:53:24.107Z,9.90
2023-01-13T00:55:54.664Z,9.90
2023-01-13T00:58:21.686Z,9.90
2023-01-13T01:00:48.613Z,10.00
2023-01-13T01:03:15.681Z,10.00
2023-01-13T01:05:42.655Z,10.00
2023-01-13T01:08:09.600Z,10.00
2023-01-13T01:10:36.602Z,10.00
2023-01-13T01:13:03.587Z,10.00
2023-01-13T01:15:30.677Z,10.00
2023-01-13T01:17:57.568Z,10.00
2023-01-13T01:20:24.611Z,10.00
2023-01-13T01:22:51.686Z,10.00
2023-01-13T01:25:18.536Z,10.00
2023-01-13T01:27:45.485Z,10.00
2023-01-13T01:30:12.726Z,10.00
2023-01-13T01:32:39.672Z,10.00
2023-01-13T01:35:06.923Z,10.00
2023-01-13T01:37:33.959Z,10.00
2023-01-13T01:40:00.989Z,10.00
2023-01-13T01:42:46.377Z,10.00
2023-01-13T01:45:23.232Z,10.00
2023-01-13T01:47:51.562Z,10.00
2023-01-13T01:50:18.585Z,10.00
2023-01-13T01:52:46.890Z,10.00
2023-01-13T01:55:14.771Z,10.00
2023-01-13T01:58:14.089Z,10.00
2023-01-13T02:00:41.121Z,10.10
2023-01-13T02:03:08.126Z,10.10
2023-01-13T02:05:35.094Z,10.10
2023-01-13T02:08:02.036Z,10.10
2023-01-13T02:10:29.353Z,10.10
2023-01-13T02:12:57.372Z,10.10
2023-01-13T02:15:44.151Z,10.10
2023-01-13T02:18:11.128Z,10.00
2023-01-13T02:21:04.582Z,10.00
2023-01-13T02:24:08.944Z,10.00
2023-01-13T02:26:48.363Z,10.00
2023-01-13T02:29:40.354Z,10.00
2023-01-13T02:32:20.499Z,10.10
2023-01-13T02:35:07.732Z,10.10
2023-01-13T02:37:39.106Z,10.10
2023-01-13T02:40:07.787Z,10.10
2023-01-13T02:42:53.636Z,10.10
2023-01-13T02:45:23.753Z,10.10
2023-01-13T02:47:50.937Z,10.10
2023-01-13T02:50:18.492Z,10.00
2023-01-13T02:52:46.668Z,10.00
2023-01-13T02:55:14.829Z,10.10
2023-01-13T02:57:41.970Z,10.10
2023-01-13T03:00:09.356Z,10.10
2023-01-13T03:02:36.468Z,10.10
2023-01-13T03:05:03.480Z,10.10
2023-01-13T03:07:30.489Z,10.10
2023-01-13T03:10:16.013Z,10.10
2023-01-13T03:13:03.701Z,10.10
2023-01-13T03:15:49.187Z,10.10
2023-01-13T03:18:48.490Z,10.10
2023-01-13T03:21:17.394Z,10.20
2023-01-13T03:23:44.379Z,10.20
2023-01-13T03:26:15.860Z,10.20
2023-01-13T03:28:44.407Z,10.20
2023-01-13T03:31:13.363Z,10.20
2023-01-13T03:33:45.926Z,10.20
2023-01-13T03:36:13.174Z,10.10
2023-01-13T03:38:44.472Z,10.20
2023-01-13T03:41:31.748Z,10.20
2023-01-13T03:44:23.327Z,10.20
2023-01-13T03:46:50.275Z,10.10
2023-01-13T03:49:18.405Z,10.20
2023-01-13T03:51:47.803Z,10.10
2023-01-13T03:54:15.614Z,10.10
2023-01-13T03:56:46.308Z,10.10
2023-01-13T03:59:17.359Z,10.20
2023-01-13T04:01:46.000Z,10.20
2023-01-13T04:04:25.311Z,10.20
2023-01-13T04:06:54.967Z,10.20
2023-01-13T04:09:24.821Z,10.10
2023-01-13T04:12:02.020Z,10.10
2023-01-13T04:14:29.059Z,10.10
2023-01-13T04:16:56.007Z,10.10
2023-01-13T04:19:22.908Z,10.10
2023-01-13T04:21:49.854Z,10.10
2023-01-13T04:24:16.799Z,10.10
2023-01-13T04:26:43.755Z,10.10
2023-01-13T04:29:10.666Z,10.20
2023-01-13T04:31:38.344Z,10.20
2023-01-13T04:34:05.246Z,10.20
2023-01-13T04:36:32.193Z,10.20
2023-01-13T04:38:59.290Z,10.20
2023-01-13T04:41:26.233Z,10.20
2023-01-13T04:43:53.395Z,10.20
2023-01-13T04:46:20.375Z,10.20
2023-01-13T04:48:47.631Z,10.30
2023-01-13T04:51:14.588Z,10.30
2023-01-13T04:53:41.483Z,10.30
2023-01-13T04:56:08.349Z,10.30
2023-01-13T04:58:35.989Z,10.30
2023-01-13T05:01:02.993Z,10.30
2023-01-13T05:03:29.978Z,10.30
2023-01-13T05:05:56.927Z,10.30
2023-01-13T05:08:23.932Z,10.30
2023-01-13T05:10:50.916Z,10.40
2023-01-13T05:13:36.391Z,10.40
2023-01-13T05:16:22.091Z,10.40
2023-01-13T05:18:49.018Z,10.40
2023-01-13T05:21:34.405Z,10.40
2023-01-13T05:24:19.725Z,10.40
2023-01-13T05:26:46.666Z,10.40
2023-01-13T05:29:13.672Z,10.50
2023-01-13T05:31:40.611Z,10.50
2023-01-13T05:34:07.552Z,10.50
2023-01-13T05:36:34.535Z,10.60
2023-01-13T05:39:01.477Z,10.60
2023-01-13T05:41:46.776Z,10.60
2023-01-13T05:44:13.774Z,10.60
2023-01-13T05:46:42.083Z,10.50
2023-01-13T05:49:09.034Z,10.60
2023-01-13T05:51:36.051Z,10.60
2023-01-13T05:54:03.000Z,10.60
2023-01-13T05:56:29.998Z,10.50
2023-01-13T05:58:56.982Z,10.60
2023-01-13T06:01:23.996Z,10.50
2023-01-13T06:03:50.986Z,10.50
2023-01-13T06:06:17.928Z,10.50
2023-01-13T06:08:44.920Z,10.50
2023-01-13T06:11:11.856Z,10.50
2023-01-13T06:13:38.886Z,10.50
2023-01-13T06:16:06.002Z,10.50
2023-01-13T06:18:33.088Z,10.50
2023-01-13T06:21:00.018Z,10.60
2023-01-13T06:23:27.382Z,10.60
2023-01-13T06:26:02.409Z,10.60
2023-01-13T06:28:29.368Z,10.60
2023-01-13T06:30:57.314Z,10.60
2023-01-13T06:33:29.198Z,10.60
2023-01-13T06:35:57.493Z,10.60
2023-01-13T06:38:24.705Z,10.60
2023-01-13T06:40:51.812Z,10.60
2023-01-13T06:43:18.811Z,10.60
2023-01-13T06:45:55.162Z,10.60
2023-01-13T06:48:22.790Z,10.70
2023-01-13T06:50:49.790Z,10.60
2023-01-13T06:53:16.754Z,10.60
2023-01-13T06:55:43.724Z,10.70
2023-01-13T06:58:10.657Z,10.70
2023-01-13T07:00:37.707Z,10.70
2023-01-13T07:03:11.271Z,10.70
2023-01-13T07:05:38.589Z,10.70
2023-01-13T07:08:05.767Z,10.70
2023-01-13T07:10:32.917Z,10.70
2023-01-13T07:13:18.920Z,10.80
2023-01-13T07:15:55.126Z,10.80
2023-01-13T07:18:22.126Z,10.90
2023-01-13T07:20:52.644Z,10.80
2023-01-13T07:23:19.538Z,10.80
2023-01-13T07:25:46.544Z,10.80
2023-01-13T07:28:13.491Z,10.80
2023-01-13T07:30:40.453Z,10.80
2023-01-13T07:33:07.424Z,10.80
2023-01-13T07:35:34.353Z,10.80
2023-01-13T07:38:01.317Z,10.80
2023-01-13T07:40:28.311Z,10.80
2023-01-13T07:43:13.719Z,10.90
2023-01-13T07:45:40.788Z,10.90
2023-01-13T07:48:07.761Z,11.00
2023-01-13T07:50:34.684Z,10.90
2023-01-13T07:53:01.582Z,11.00
2023-01-13T07:55:28.521Z,11.00
2023-01-13T07:57:55.477Z,11.00
2023-01-13T08:00:22.734Z,11.00
2023-01-13T08:02:49.722Z,11.10
2023-01-13T08:05:16.749Z,11.10
2023-01-13T08:07:44.207Z,11.10
2023-01-13T08:10:11.243Z,11.10
2023-01-13T08:12:57.275Z,11.10
2023-01-13T08:15:24.344Z,11.20
2023-01-13T08:17:51.334Z,11.20
2023-01-13T08:20:18.565Z,11.20
2023-01-13T08:22:45.610Z,11.20
2023-01-13T08:25:12.597Z,11.20
2023-01-13T08:27:40.114Z,11.20
2023-01-13T08:30:07.687Z,11.30
2023-01-13T08:32:34.755Z,11.30
2023-01-13T08:35:01.805Z,11.30
2023-01-13T08:37:28.716Z,11.30
2023-01-13T08:39:55.682Z,11.30
2023-01-13T08:42:22.764Z,11.20
2023-01-13T08:44:49.695Z,11.20
2023-01-13T08:47:16.880Z,11.20
2023-01-13T08:49:43.942Z,11.20
2023-01-13T08:52:10.923Z,11.20
2023-01-13T08:54:38.677Z,11.30
2023-01-13T08:57:05.691Z,11.30
2023-01-13T08:59:32.824Z,11.30
2023-01-13T09:02:00.037Z,11.30
2023-01-13T09:04:28.017Z,11.20
2023-01-13T09:06:55.042Z,11.20
2023-01-13T09:09:22.349Z,11.10
2023-01-13T09:12:08.687Z,11.10
2023-01-13T09:14:36.257Z,11.00
2023-01-13T09:17:03.342Z,10.90
2023-01-13T09:19:30.558Z,10.80
2023-01-13T09:21:57.749Z,10.70
2023-01-13T09:24:25.164Z,10.70
2023-01-13T09:26:52.114Z,10.70
2023-01-13T09:29:19.151Z,10.60
2023-01-13T09:31:46.102Z,10.60
2023-01-13T09:34:32.334Z,10.60
2023-01-13T09:36:59.488Z,10.40
2023-01-13T09:39:26.499Z,10.40
2023-01-13T09:42:15.399Z,10.30
2023-01-13T09:44:50.307Z,10.40
2023-01-13T09:47:17.327Z,10.40
2023-01-13T09:49:44.263Z,10.40
2023-01-13T09:52:19.334Z,10.40
2023-01-13T09:55:05.523Z,10.40
2023-01-13T09:57:32.967Z,10.40
2023-01-13T09:59:59.983Z,10.50
2023-01-13T10:02:45.496Z,10.50
2023-01-13T10:05:14.723Z,10.50
2023-01-13T10:07:48.319Z,10.40
2023-01-13T10:10:18.113Z,10.40
2023-01-13T10:13:04.116Z,10.30
2023-01-13T10:15:31.070Z,10.30
2023-01-13T10:17:58.044Z,10.30
2023-01-13T10:20:33.955Z,10.30
2023-01-13T10:23:08.699Z,10.30
2023-01-13T10:26:01.788Z,10.40
2023-01-13T10:28:28.785Z,10.40
2023-01-13T10:30:55.830Z,10.40
2023-01-13T10:33:26.949Z,10.40
2023-01-13T10:35:56.098Z,10.50
2023-01-13T10:38:23.049Z,10.40
2023-01-13T10:40:51.111Z,10.40
2023-01-13T10:43:18.245Z,10.40
2023-01-13T10:46:11.565Z,10.30
2023-01-13T10:48:39.926Z,10.20
2023-01-13T10:51:10.764Z,10.10
2023-01-13T10:53:45.127Z,10.00
2023-01-13T10:56:16.022Z,9.90
2023-01-13T10:58:42.937Z,9.90
2023-01-13T11:01:10.504Z,9.80
2023-01-13T11:03:40.444Z,9.80
2023-01-13T11:06:07.528Z,9.80
2023-01-13T11:08:45.250Z,9.80
2023-01-13T11:11:28.695Z,9.80
2023-01-13T11:14:15.595Z,9.80
2023-01-13T11:16:52.776Z,9.80
2023-01-13T11:19:20.968Z,9.80
2023-01-13T11:21:51.086Z,9.80
2023-01-13T11:24:20.288Z,9.80
2023-01-13T11:26:52.028Z,9.80
2023-01-13T11:29:21.028Z,9.90
2023-01-13T11:31:52.424Z,9.80
2023-01-13T11:34:30.491Z,9.90
2023-01-13T11:36:58.473Z,9.90
2023-01-13T11:39:44.340Z,9.80
2023-01-13T11:42:29.155Z,9.80
2023-01-13T11:45:01.982Z,9.90
2023-01-13T11:47:28.941Z,10.10
2023-01-13T11:49:56.012Z,10.80
2023-01-13T11:52:32.968Z,12.50
2023-01-13T11:55:06.041Z,13.90
2023-01-13T11:57:36.050Z,13.90
2023-01-13T12:00:03.014Z,13.40
2023-01-13T12:02:58.149Z,13.40
2023-01-13T12:05:27.938Z,13.60
2023-01-13T12:07:54.843Z,13.50
2023-01-13T12:10:26.157Z,13.70
2023-01-13T12:13:12.017Z,14.00
2023-01-13T12:15:57.236Z,13.80
2023-01-13T12:18:31.733Z,13.10
2023-01-13T12:21:10.636Z,12.20
2023-01-13T12:23:56.387Z,11.70
2023-01-13T12:26:23.474Z,11.40
2023-01-13T12:28:50.590Z,11.10
2023-01-13T12:31:19.061Z,11.40
2023-01-13T12:33:48.831Z,12.10
2023-01-13T12:36:15.872Z,12.40
2023-01-13T12:38:45.578Z,12.30
2023-01-13T12:41:15.702Z,12.10
2023-01-13T12:44:03.146Z,12.10
2023-01-13T12:46:30.079Z,12.30
2023-01-13T12:49:05.307Z,12.20
2023-01-13T12:51:35.867Z,12.00
2023-01-13T12:54:03.938Z,11.60
2023-01-13T12:56:35.467Z,11.30
2023-01-13T12:59:24.376Z,11.10
2023-01-13T13:02:09.384Z,11.20
2023-01-13T13:04:47.733Z,11.70
2023-01-13T13:07:19.237Z,13.30
2023-01-13T13:09:48.458Z,15.30
2023-01-13T13:12:49.089Z,17.00
2023-01-13T13:15:20.223Z,17.50
2023-01-13T13:18:00.491Z,18.60
2023-01-13T13:20:46.028Z,19.50
2023-01-13T13:23:48.440Z,19.50
2023-01-13T13:26:20.208Z,18.70
2023-01-13T13:28:47.260Z,17.40
2023-01-13T13:31:21.339Z,16.10
2023-01-13T13:33:50.886Z,14.90
2023-01-13T13:36:20.649Z,14.00
2023-01-13T13:39:21.678Z,13.40
2023-01-13T13:42:09.387Z,12.90
2023-01-13T13:44:58.568Z,12.50
2023-01-13T13:47:25.583Z,12.20
2023-01-13T13:49:54.414Z,12.00
2023-01-13T13:52:26.841Z,11.70
2023-01-13T13:54:55.378Z,11.50
2023-01-13T13:57:42.615Z,11.30
2023-01-13T14:00:30.630Z,11.20
2023-01-13T14:02:58.620Z,11.10
2023-01-13T14:05:28.992Z,10.90
2023-01-13T14:07:59.797Z,10.80
2023-01-13T14:10:38.977Z,10.60
2023-01-13T14:13:15.648Z,10.50
2023-01-13T14:15:42.637Z,10.40
2023-01-13T14:18:19.311Z,10.40
2023-01-13T14:20:53.210Z,10.30
2023-01-13T14:23:20.258Z,10.20
2023-01-13T14:25:48.036Z,10.20
2023-01-13T14:28:27.886Z,10.10
2023-01-13T14:30:56.958Z,10.10
2023-01-13T14:33:34.921Z,10.10
2023-01-13T14:36:06.001Z,10.00
2023-01-13T14:38:32.959Z,9.90
2023-01-13T14:41:09.388Z,9.80
2023-01-13T14:43:36.332Z,9.70
2023-01-13T14:46:03.476Z,9.70
2023-01-13T14:48:33.362Z,9.60
2023-01-13T14:51:00.787Z,9.60
2023-01-13T14:53:47.170Z,9.60
2023-01-13T14:56:55.185Z,9.50
2023-01-13T14:59:40.015Z,9.50
2023-01-13T15:02:25.483Z,9.40
2023-01-13T15:04:58.700Z,9.40
2023-01-13T15:07:25.612Z,9.40
2023-01-13T15:09:59.281Z,9.30
2023-01-13T15:12:29.078Z,9.20
2023-01-13T15:14:56.763Z,9.20
2023-01-13T15:17:23.596Z,9.10
2023-01-13T15:19:50.525Z,9.10
2023-01-13T15:22:17.534Z,9.00
2023-01-13T15:24:44.580Z,9.00
2023-01-13T15:27:22.537Z,8.90
2023-01-13T15:29:49.473Z,8.90
2023-01-13T15:32:19.794Z,8.90
2023-01-13T15:34:46.963Z,9.00
2023-01-13T15:37:14.526Z,9.00
2023-01-13T15:39:41.650Z,9.00
2023-01-13T15:42:29.345Z,9.00
2023-01-13T15:45:14.767Z,8.90
2023-01-13T15:47:41.817Z,8.90
2023-01-13T15:50:15.135Z,8.70
2023-01-13T15:52:42.163Z,8.70
2023-01-13T15:55:09.636Z,8.60
2023-01-13T15:57:37.481Z,8.50
2023-01-13T16:00:11.391Z,8.50
2023-01-13T16:02:38.356Z,8.40
2023-01-13T16:05:05.587Z,8.40
2023-01-13T16:07:32.626Z,8.30
2023-01-13T16:10:01.851Z,8.30
2023-01-13T16:12:28.906Z,8.20
2023-01-13T16:14:55.882Z,8.20
2023-01-13T16:17:23.510Z,8.10
2023-01-13T16:19:50.557Z,8.10
2023-01-13T16:22:17.621Z,8.00
2023-01-13T16:24:44.860Z,7.90
2023-01-13T16:27:11.832Z,7.90
2023-01-13T16:29:38.842Z,7.90
2023-01-13T16:32:05.823Z,7.80
2023-01-13T16:34:32.804Z,7.80
2023-01-13T16:37:00.027Z,7.70
2023-01-13T16:39:27.077Z,7.70
2023-01-13T16:41:54.088Z,7.70
2023-01-13T16:44:21.075Z,7.70
2023-01-13T16:46:48.236Z,7.70
2023-01-13T16:49:15.589Z,7.70
2023-01-13T16:51:42.653Z,7.60
2023-01-13T16:54:09.593Z,7.60
2023-01-13T16:56:36.631Z,7.60
2023-01-13T16:59:07.778Z,7.60
2023-01-13T17:01:37.277Z,7.60
2023-01-13T17:04:04.500Z,7.50
2023-01-13T17:06:46.853Z,7.50
2023-01-13T17:09:17.409Z,7.50
2023-01-13T17:11:44.438Z,7.50
2023-01-13T17:14:18.919Z,7.50
2023-01-13T17:16:46.690Z,7.40
2023-01-13T17:19:13.766Z,7.40
2023-01-13T17:21:40.816Z,7.40
2023-01-13T17:24:08.142Z,7.40
2023-01-13T17:26:37.342Z,7.40
2023-01-13T17:29:05.027Z,7.40
2023-01-13T17:31:32.131Z,7.40
2023-01-13T17:33:59.123Z,7.40
2023-01-13T17:36:26.173Z,7.50
2023-01-13T17:38:54.355Z,7.50
2023-01-13T17:41:21.252Z,7.50
2023-01-13T17:43:48.228Z,7.50
2023-01-13T17:46:18.614Z,7.50
2023-01-13T17:48:46.012Z,7.60
2023-01-13T17:51:13.377Z,7.60
2023-01-13T17:53:45.508Z,7.70
2023-01-13T17:56:12.999Z,7.70
2023-01-13T17:58:41.621Z,7.70
2023-01-13T18:01:12.164Z,7.70
2023-01-13T18:03:39.240Z,7.80
2023-01-13T18:06:06.736Z,7.80
2023-01-13T18:08:33.719Z,7.80
2023-01-13T18:11:02.845Z,7.80
2023-01-13T18:13:31.545Z,7.90
2023-01-13T18:16:07.814Z,7.90
2023-01-13T18:18:34.697Z,7.90
2023-01-13T18:21:20.152Z,7.90
2023-01-13T18:23:55.950Z,7.90
2023-01-13T18:26:41.510Z,8.00
2023-01-13T18:29:08.433Z,8.00
2023-01-13T18:31:35.386Z,8.10
2023-01-13T18:34:02.309Z,8.10
2023-01-13T18:36:29.274Z,8.00
2023-01-13T18:38:57.667Z,8.00
2023-01-13T18:41:43.638Z,7.90
2023-01-13T18:44:10.570Z,7.90
2023-01-13T18:46:37.555Z,7.90
2023-01-13T18:49:04.519Z,7.80
2023-01-13T18:51:31.416Z,7.80
2023-01-13T18:53:58.562Z,7.70
2023-01-13T18:56:25.598Z,7.60
2023-01-13T18:58:53.477Z,7.50
2023-01-13T19:01:25.851Z,7.50
2023-01-13T19:03:59.712Z,7.40
2023-01-13T19:06:28.369Z,7.40
2023-01-13T19:09:01.653Z,7.40
2023-01-13T19:11:30.628Z,7.40
2023-01-13T19:13:57.586Z,7.40
2023-01-13T19:16:24.518Z,7.40
2023-01-13T19:18:51.495Z,7.40
2023-01-13T19:21:18.565Z,7.40
2023-01-13T19:23:45.656Z,7.40
2023-01-13T19:26:12.711Z,7.30
2023-01-13T19:28:42.930Z,7.30
2023-01-13T19:31:10.249Z,7.30
2023-01-13T19:33:38.410Z,7.40
2023-01-13T19:36:05.815Z,7.30
2023-01-13T19:38:32.864Z,7.30
2023-01-13T19:41:00.844Z,7.30
2023-01-13T19:43:46.417Z,7.30
2023-01-13T19:46:13.477Z,7.30
2023-01-13T19:48:40.521Z,7.30
2023-01-13T19:51:07.457Z,7.30
2023-01-13T19:53:34.409Z,7.30
2023-01-13T19:56:01.333Z,7.30
2023-01-13T19:58:29.281Z,7.30
2023-01-13T20:00:56.330Z,7.30
2023-01-13T20:03:24.361Z,7.30
2023-01-13T20:05:51.875Z,7.30
2023-01-13T20:08:19.135Z,7.20
2023-01-13T20:10:46.314Z,7.20
2023-01-13T20:13:13.353Z,7.20
2023-01-13T20:15:40.556Z,7.20
2023-01-13T20:18:07.548Z,7.20
2023-01-13T20:20:34.702Z,7.20
2023-01-13T20:23:01.747Z,7.10
2023-01-13T20:25:28.986Z,7.20
2023-01-13T20:27:56.137Z,7.20
2023-01-13T20:30:23.316Z,7.10
2023-01-13T20:32:50.362Z,7.10
2023-01-13T20:35:17.397Z,7.10
2023-01-13T20:37:44.442Z,7.10
2023-01-13T20:40:13.078Z,7.10
2023-01-13T20:42:45.069Z,7.00
2023-01-13T20:45:16.930Z,7.10
2023-01-13T20:47:44.519Z,7.10
2023-01-13T20:50:11.870Z,7.10
2023-01-13T20:52:38.846Z,7.10
2023-01-13T20:55:06.649Z,7.00
2023-01-13T20:57:33.638Z,7.00
2023-01-13T21:00:00.779Z,7.10
2023-01-13T21:02:27.831Z,7.10
2023-01-13T21:04:54.689Z,7.10
2023-01-13T21:07:21.717Z,7.10
2023-01-13T21:09:48.747Z,7.10
2023-01-13T21:12:34.256Z,7.10
2023-01-13T21:15:22.902Z,7.10
2023-01-13T21:18:09.120Z,7.10
2023-01-13T21:20:36.364Z,7.10
2023-01-13T21:23:03.615Z,7.10
2023-01-13T21:25:30.882Z,7.10
2023-01-13T21:28:17.115Z,7.20
2023-01-13T21:30:45.591Z,7.10
2023-01-13T21:33:13.029Z,7.10
2023-01-13T21:35:40.032Z,7.00
2023-01-13T21:38:07.276Z,7.10
2023-01-13T21:40:34.219Z,7.00
2023-01-13T21:43:19.804Z,7.00
2023-01-13T21:46:05.687Z,7.00
2023-01-13T21:48:32.765Z,7.00
2023-01-13T21:51:00.480Z,7.00
2023-01-13T21:53:27.391Z,7.00
2023-01-13T21:55:54.320Z,6.90
2023-01-13T21:58:21.259Z,7.00
2023-01-13T22:00:49.551Z,7.00
2023-01-13T22:03:18.379Z,7.00
2023-01-13T22:05:46.258Z,7.00
2023-01-13T22:08:13.712Z,7.00
2023-01-13T22:10:58.031Z,7.00
2023-01-13T22:13:44.303Z,7.00
2023-01-13T22:16:11.479Z,7.00
2023-01-13T22:18:38.706Z,7.00
2023-01-13T22:21:05.995Z,7.10
2023-01-13T22:23:33.005Z,7.10
2023-01-13T22:26:03.074Z,7.10
2023-01-13T22:28:34.393Z,7.20
2023-01-13T22:31:01.424Z,7.20
2023-01-13T22:33:28.374Z,7.30
2023-01-13T22:35:55.788Z,7.40
2023-01-13T22:38:23.918Z,7.40
2023-01-13T22:40:59.951Z,7.40
2023-01-13T22:43:27.111Z,7.40
2023-01-13T22:46:00.639Z,7.50
2023-01-13T22:48:27.844Z,7.50
2023-01-13T22:50:54.763Z,7.50
2023-01-13T22:53:21.844Z,7.50
2023-01-13T22:55:55.514Z,7.50
2023-01-13T22:58:22.561Z,7.40
2023-01-13T23:00:49.547Z,7.40
2023-01-13T23:03:16.684Z,7.40
2023-01-13T23:05:45.633Z,7.30
2023-01-13T23:08:12.651Z,7.30
2023-01-13T23:10:39.686Z,7.30
2023-01-13T23:13:06.640Z,7.20
2023-01-13T23:15:36.635Z,7.20
2023-01-13T23:18:03.809Z,7.30
2023-01-13T23:20:30.872Z,7.30
2023-01-13T23:22:59.261Z,7.30
2023-01-13T23:25:26.408Z,7.30
2023-01-13T23:27:53.491Z,7.20
2023-01-13T23:30:20.574Z,7.20
2023-01-13T23:32:47.529Z,7.20
2023-01-13T23:35:14.488Z,7.20
2023-01-13T23:37:41.452Z,7.20
2023-01-13T23:40:09.739Z,7.20
2023-01-13T23:42:36.769Z,7.20
2023-01-13T23:45:03.814Z,7.20
2023-01-13T23:47:30.800Z,7.10
2023-01-13T23:49:57.793Z,7.20
2023-01-13T23:52:24.742Z,7.10
2023-01-13T23:54:51.792Z,7.20
2023-01-13T23:57:19.013Z,7.20
2023-01-13T23:59:45.903Z,7.20
